Brown Field Municipal Airport
KSDM : now visible

Airfield :











YOU CAN JOIN US ON...

 
LOGIN :

Register | Disclaimer

   EN    FR    IT 

 









Legend :    VFR   Marginal VFR   IFR   Intensive IFR   Very Intensive IFR
Visi :
Ceiling :
>= 8 km
>= 3000ft
5 to 8 km
1000 to 3000 ft
1500m to 5 km
500 to 1000 ft
800 to 1500m
200 to 500 ft
< 800m
< 200 ft
Symbols :   Thunderstorms  Fog  Heavy snow  Heavy precipitations  Wind > 20 kt






- Airport Elevation : 526 ft


KSDM - Brown Field Municipal

CURRENT METAR :
  • 180953Z AUTO 00000KT 9SM OVC006 21/19 A2993 RMK AO2 SLP129 T02110189

EXPIRED METARs :
  • 180904Z AUTO 27003KT 9SM OVC006 21/18 A2992 RMK AO2 T02060183
  • 180753Z AUTO 00000KT 9SM OVC005 21/19 A2994 RMK AO2 SLP133 T02060189 402890183
  • 180735Z AUTO 00000KT 10SM BKN005 21/18 A2994 RMK AO2 T02060183
  • 180728Z AUTO 00000KT 10SM BKN006 21/18 A2994 RMK AO2 T02060183
  • 180719Z AUTO 00000KT 10SM SCT006 21/18 A2995 RMK AO2 T02060183

TAF N/A
KZLA FIR / North America



MET'MAP, your aeronautical weather chart ! - Copyright ORBIFLY December 2007 - Disclaimer

ORBIFLY MET'MAP TEAM :

Programming & Development : Alexandra Zaïnal
Original concept : Baudouin d'Aumeries
Technical & hardware support : Manuel Goepfert
Assistance : Marc-Olivier Méhu




SOURCES & CREDITS :

   NOAA       Earth
Advisory